createdAt,value
2023-01-13T00:03:34.224Z,2.03
2023-01-13T00:08:56.014Z,3.67
2023-01-13T00:14:18.331Z,2.22
2023-01-13T00:19:43.296Z,2.00
2023-01-13T00:25:06.890Z,2.22
2023-01-13T00:30:28.571Z,2.63
2023-01-13T00:35:58.008Z,2.15
2023-01-13T00:41:24.361Z,3.22
2023-01-13T00:46:46.340Z,4.60
2023-01-13T00:52:08.067Z,4.32
2023-01-13T00:57:29.760Z,3.45
2023-01-13T01:02:51.531Z,3.70
2023-01-13T01:08:13.213Z,4.20
2023-01-13T01:13:35.527Z,3.10
2023-01-13T01:18:58.467Z,4.93
2023-01-13T01:24:20.245Z,2.38
2023-01-13T01:29:41.962Z,2.95
2023-01-13T01:35:05.158Z,4.10
2023-01-13T01:40:27.794Z,3.53
2023-01-13T01:45:52.859Z,4.00
2023-01-13T01:51:14.921Z,4.33
2023-01-13T01:56:38.257Z,5.55
2023-01-13T02:02:00.481Z,3.22
2023-01-13T02:07:26.294Z,8.32
2023-01-13T02:12:49.248Z,4.85
2023-01-13T02:18:16.733Z,4.75
2023-01-13T02:24:24.096Z,4.88
2023-01-13T02:30:14.839Z,4.38
2023-01-13T02:35:55.797Z,4.22
2023-01-13T02:41:46.700Z,6.68
2023-01-13T02:47:16.353Z,4.38
2023-01-13T02:52:43.678Z,3.13
2023-01-13T02:58:09.661Z,3.78
2023-01-13T03:03:31.339Z,5.28
2023-01-13T03:08:59.164Z,4.15
2023-01-13T03:14:48.951Z,3.40
2023-01-13T03:20:21.874Z,5.35
2023-01-13T03:25:54.443Z,4.25
2023-01-13T03:31:28.442Z,4.68
2023-01-13T03:36:54.486Z,5.60
2023-01-13T03:42:23.927Z,4.05
2023-01-13T03:47:55.505Z,5.32
2023-01-13T03:53:28.231Z,3.75
2023-01-13T03:58:53.236Z,3.72
2023-01-13T04:04:26.767Z,5.03
2023-01-13T04:09:53.266Z,2.67
2023-01-13T04:15:17.333Z,4.93
2023-01-13T04:20:40.267Z,4.13
2023-01-13T04:26:02.016Z,5.35
2023-01-13T04:31:23.875Z,4.30
2023-01-13T04:36:45.723Z,3.92
2023-01-13T04:42:07.448Z,8.65
2023-01-13T04:47:29.156Z,4.63
2023-01-13T04:52:51.899Z,3.20
2023-01-13T04:58:13.592Z,3.47
2023-01-13T05:03:35.316Z,2.65
2023-01-13T05:08:57.480Z,4.50
2023-01-13T05:14:38.127Z,6.80
2023-01-13T05:19:59.875Z,2.83
2023-01-13T05:25:21.832Z,4.90
2023-01-13T05:30:46.309Z,3.03
2023-01-13T05:36:08.554Z,4.82
2023-01-13T05:41:48.793Z,3.65
2023-01-13T05:47:10.751Z,4.40
2023-01-13T05:52:32.607Z,3.90
2023-01-13T05:57:54.389Z,3.15
2023-01-13T06:03:16.475Z,2.92
2023-01-13T06:08:39.900Z,4.90
2023-01-13T06:14:01.835Z,4.38
2023-01-13T06:19:23.529Z,4.25
2023-01-13T06:24:48.805Z,2.38
2023-01-13T06:30:11.278Z,9.13
2023-01-13T06:35:35.820Z,9.38
2023-01-13T06:40:57.688Z,6.35
2023-01-13T06:46:19.461Z,9.98
2023-01-13T06:51:41.200Z,10.15
2023-01-13T06:57:03.219Z,10.73
2023-01-13T07:02:24.996Z,11.95
2023-01-13T07:07:46.835Z,11.48
2023-01-13T07:13:27.271Z,12.52
2023-01-13T07:18:48.951Z,8.35
2023-01-13T07:24:10.702Z,10.30
2023-01-13T07:29:32.433Z,12.27
2023-01-13T07:34:54.279Z,17.13
2023-01-13T07:40:16.220Z,8.32
2023-01-13T07:45:38.017Z,12.55
2023-01-13T07:51:04.904Z,12.80
2023-01-13T07:56:26.690Z,7.68
2023-01-13T08:01:48.563Z,7.22
2023-01-13T08:07:10.355Z,8.13
2023-01-13T08:12:52.780Z,14.50
2023-01-13T08:18:19.614Z,11.15
2023-01-13T08:23:43.090Z,16.07
2023-01-13T08:29:04.813Z,13.52
2023-01-13T08:34:26.686Z,10.95
2023-01-13T08:39:48.558Z,9.70
2023-01-13T08:45:11.273Z,8.77
2023-01-13T08:50:33.168Z,14.10
2023-01-13T08:55:54.969Z,14.32
2023-01-13T09:01:22.734Z,13.65
2023-01-13T09:06:44.695Z,10.98
2023-01-13T09:12:26.323Z,14.98
2023-01-13T09:17:48.361Z,10.82
2023-01-13T09:23:11.228Z,9.20
2023-01-13T09:28:33.707Z,8.88
2023-01-13T09:34:14.260Z,9.77
2023-01-13T09:39:36.603Z,9.45
2023-01-13T09:45:11.723Z,10.32
2023-01-13T09:50:55.855Z,10.32
2023-01-13T09:56:17.633Z,11.40
2023-01-13T10:01:54.070Z,11.52
2023-01-13T10:07:15.900Z,16.98
2023-01-13T10:12:56.501Z,10.50
2023-01-13T10:18:36.769Z,10.20
2023-01-13T10:24:14.819Z,18.02
2023-01-13T10:29:36.973Z,10.95
2023-01-13T10:34:58.785Z,12.70
2023-01-13T10:40:20.671Z,8.52
2023-01-13T10:46:02.289Z,10.18
2023-01-13T10:51:27.086Z,11.85
2023-01-13T10:56:50.577Z,12.50
2023-01-13T11:02:25.666Z,10.85
2023-01-13T11:07:52.320Z,10.38
2023-01-13T11:13:18.841Z,11.45
2023-01-13T11:19:02.623Z,15.07
2023-01-13T11:24:37.222Z,14.75
2023-01-13T11:30:17.415Z,24.50
2023-01-13T11:35:48.175Z,19.52
2023-01-13T11:41:42.204Z,18.90
2023-01-13T11:47:04.121Z,14.73
2023-01-13T11:52:32.196Z,15.63
2023-01-13T11:58:00.300Z,8.63
2023-01-13T12:03:35.844Z,13.75
2023-01-13T12:09:12.065Z,13.30
2023-01-13T12:20:44.061Z,13.60
2023-01-13T12:26:10.546Z,15.85
2023-01-13T12:31:36.415Z,13.65
2023-01-13T12:37:18.577Z,12.45
2023-01-13T12:43:26.350Z,11.00
2023-01-13T12:54:31.172Z,11.30
2023-01-13T13:00:05.037Z,9.18
2023-01-13T13:05:35.111Z,9.23
2023-01-13T13:11:33.537Z,8.82
2023-01-13T13:16:55.322Z,7.97
2023-01-13T13:22:21.188Z,11.60
2023-01-13T13:28:12.997Z,8.18
2023-01-13T13:33:46.569Z,7.35
2023-01-13T13:39:44.741Z,7.13
2023-01-13T13:45:42.432Z,7.50
2023-01-13T13:51:24.991Z,9.68
2023-01-13T13:56:50.450Z,6.63
2023-01-13T14:02:32.321Z,5.93
2023-01-13T14:08:07.874Z,8.80
2023-01-13T14:13:31.611Z,6.60
2023-01-13T14:18:53.388Z,6.72
2023-01-13T14:24:17.673Z,16.33
2023-01-13T14:29:40.009Z,20.27
2023-01-13T14:35:01.887Z,26.55
2023-01-13T14:40:42.516Z,44.05
2023-01-13T14:46:04.560Z,63.17
2023-01-13T14:51:28.635Z,58.20
2023-01-13T14:56:51.810Z,46.38
2023-01-13T15:02:25.406Z,35.90
2023-01-13T15:07:52.831Z,36.70
2023-01-13T15:13:29.572Z,43.45
2023-01-13T15:18:52.379Z,65.40
2023-01-13T15:24:14.104Z,60.70
2023-01-13T15:29:35.799Z,61.25
2023-01-13T15:34:57.484Z,59.30
2023-01-13T15:40:21.868Z,66.85
2023-01-13T15:46:02.875Z,171.98
2023-01-13T15:51:24.613Z,145.10
2023-01-13T15:56:46.663Z,124.53
2023-01-13T16:02:15.080Z,98.38
2023-01-13T16:07:37.176Z,82.15
2023-01-13T16:12:58.934Z,56.65
2023-01-13T16:18:24.516Z,50.38
2023-01-13T16:29:12.703Z,34.53
2023-01-13T16:34:34.626Z,33.05
2023-01-13T16:39:56.358Z,28.77
2023-01-13T16:45:18.715Z,25.95
2023-01-13T16:50:42.631Z,21.13
2023-01-13T16:56:11.787Z,23.08
2023-01-13T17:01:36.022Z,18.83
2023-01-13T17:07:00.619Z,22.75
2023-01-13T17:12:22.349Z,17.52
2023-01-13T17:17:48.155Z,19.35
2023-01-13T17:23:09.978Z,12.73
2023-01-13T17:28:31.670Z,13.38
2023-01-13T17:33:53.614Z,13.02
2023-01-13T17:39:20.947Z,10.85
2023-01-13T17:44:42.759Z,12.88
2023-01-13T17:50:05.488Z,14.68
2023-01-13T17:55:27.212Z,19.25
2023-01-13T18:00:50.126Z,13.63
2023-01-13T18:06:17.999Z,9.80
2023-01-13T18:11:39.845Z,13.13
2023-01-13T18:17:01.622Z,12.15
2023-01-13T18:22:45.248Z,12.18
2023-01-13T18:28:06.973Z,10.02
2023-01-13T18:33:28.689Z,11.18
2023-01-13T18:38:50.960Z,7.38
2023-01-13T18:44:12.683Z,10.30
2023-01-13T18:49:34.417Z,9.57
2023-01-13T18:54:56.203Z,6.55
2023-01-13T19:00:20.585Z,6.95
2023-01-13T19:05:43.144Z,8.90
2023-01-13T19:11:06.578Z,5.72
2023-01-13T19:16:28.580Z,7.57
2023-01-13T19:21:50.308Z,8.18
2023-01-13T19:27:14.707Z,6.13
2023-01-13T19:32:36.413Z,7.30
2023-01-13T19:37:58.142Z,5.55
2023-01-13T19:43:38.539Z,7.88
2023-01-13T19:49:01.000Z,8.00
2023-01-13T19:54:22.733Z,7.43
2023-01-13T19:59:44.432Z,6.22
2023-01-13T20:05:08.199Z,6.45
2023-01-13T20:10:32.926Z,4.97
2023-01-13T20:15:54.867Z,7.33
2023-01-13T20:21:16.609Z,6.50
2023-01-13T20:26:40.076Z,7.82
2023-01-13T20:32:01.868Z,6.13
2023-01-13T20:37:23.660Z,7.40
2023-01-13T20:42:46.482Z,6.47
2023-01-13T20:48:08.180Z,13.18
2023-01-13T20:53:29.908Z,14.90
2023-01-13T20:58:51.670Z,11.15
2023-01-13T21:04:13.421Z,10.60
2023-01-13T21:09:35.910Z,13.38
2023-01-13T21:15:16.567Z,11.77
2023-01-13T21:20:39.356Z,9.77
2023-01-13T21:26:01.141Z,9.63
2023-01-13T21:31:23.006Z,9.90
2023-01-13T21:36:45.131Z,8.30
2023-01-13T21:42:25.720Z,12.65
2023-01-13T21:47:50.685Z,10.35
2023-01-13T21:53:12.476Z,10.30
2023-01-13T21:58:34.214Z,12.07
2023-01-13T22:04:13.881Z,10.10
2023-01-13T22:09:35.615Z,9.70
2023-01-13T22:14:57.761Z,8.88
2023-01-13T22:20:20.124Z,8.40
2023-01-13T22:25:41.830Z,7.60
2023-01-13T22:31:07.931Z,13.90
2023-01-13T22:36:29.644Z,10.18
2023-01-13T22:41:51.866Z,10.30
2023-01-13T22:47:13.559Z,11.10
2023-01-13T22:52:35.635Z,5.47
2023-01-13T22:57:57.522Z,7.40
2023-01-13T23:03:19.748Z,10.20
2023-01-13T23:08:41.839Z,7.05
2023-01-13T23:14:06.590Z,5.53
2023-01-13T23:19:28.276Z,6.83
2023-01-13T23:24:49.948Z,8.40
2023-01-13T23:30:12.132Z,7.20
2023-01-13T23:35:33.913Z,6.05
2023-01-13T23:40:56.199Z,3.15
2023-01-13T23:46:18.113Z,6.82
2023-01-13T23:51:39.861Z,6.38
2023-01-13T23:57:01.595Z,6.82
